Terminal Aerodrome Forecast
Issued by NWS Upton, NY

Home | Current Version | Previous Version | Text Only | Print | Product List | Glossary On
Versions: 1 2 3 4 5 6 7 8 9 10 11 12 13 14 15 16 17 18 19 20 21 22 23 24 25 26 27
661
FTUS41 KOKX 021933 AAA
TAFJFK
TAF AMD
KJFK 021933Z 0220/0324 20005KT P6SM BKN010 OVC015
      TEMPO 0220/0222 SCT008 BKN015
     FM030100 VRB05KT 3SM BR OVC005
     FM030900 06010KT 2SM RA BR OVC005
     FM031600 03007KT 5SM BR SCT005 OVC010=

USA.gov is the U.S. government's official web portal to all federal, state and local government web resources and services.